Time;durP1;ratioP1;P1;durP2;ratioP2;P2;SDS_P1;SDS_P2;PMS_P1;PMS_P2;Temp;Humidity;BMP_temperature;BMP_pressure;BME280_temperature;BME280_humidity;BME280_pressure;Samples;Min_cycle;Max_cycle;Signal;HPM_P1;HPM_P2
2023/02/20 00:01:58;;;;;;;14.25;8.90;;;6.60;1.00;;;;;;6274594;22;20140;-86
2023/02/20 00:10:19;;;;;;;15.20;9.77;;;6.60;1.00;;;;;;6273642;22;20184;-86
2023/02/20 00:12:46;;;;;;;18.17;10.25;;;6.50;1.00;;;;;;6272625;22;20184;-86
2023/02/20 00:15:30;;;;;;;17.33;10.10;;;6.50;1.00;;;;;;6274725;22;20144;-86
2023/02/20 00:18:42;;;;;;;17.02;9.63;;;6.50;1.00;;;;;;6273654;22;20167;-86
2023/02/20 00:21:58;;;;;;;;;;;;;;;;;;;;;
2023/02/20 00:27:30;;;;;;;16.23;10.07;;;6.50;1.00;;;;;;6273329;22;20160;-86
2023/02/20 00:29:55;;;;;;;17.80;11.50;;;6.40;1.00;;;;;;6273961;22;20153;-86
2023/02/20 00:32:28;;;;;;;16.73;11.20;;;6.40;1.00;;;;;;6274118;22;20256;-86
2023/02/20 00:35:04;;;;;;;13.93;10.20;;;6.40;1.00;;;;;;6274529;22;20176;-86
2023/02/20 00:40:35;;;;;;;18.15;10.35;;;6.40;1.00;;;;;;6255994;22;20335;-86
2023/02/20 00:43:37;;;;;;;;;;;;;;;;;;;;;
2023/02/20 00:46:13;;;;;;;18.67;11.27;;;6.40;1.00;;;;;;6273952;22;20227;-86
2023/02/20 00:48:41;;;;;;;18.88;10.95;;;6.40;1.00;;;;;;6271379;22;20209;-86
2023/02/20 00:51:34;;;;;;;15.15;10.40;;;6.40;1.00;;;;;;6278057;22;20168;-87
2023/02/20 00:54:22;;;;;;;19.52;11.80;;;6.40;1.00;;;;;;6290813;22;20175;-87
2023/02/20 00:57:06;;;;;;;;;;;;;;;;;;;;;
2023/02/20 00:59:43;;;;;;;20.17;11.25;;;6.40;1.00;;;;;;6275073;22;20220;-86
2023/02/20 01:02:34;;;;;;;21.52;10.07;;;6.40;1.00;;;;;;6275288;22;20446;-86
2023/02/20 01:05:25;;;;;;;18.52;11.25;;;6.40;1.00;;;;;;6274501;22;20152;-86
2023/02/20 01:08:04;;;;;;;16.83;9.85;;;6.40;1.00;;;;;;6273744;22;20612;-87
2023/02/20 01:10:39;;;;;;;21.58;12.65;;;6.50;1.00;;;;;;6274159;22;20155;-86
2023/02/20 01:13:38;;;;;;;;;;;;;;;;;;;;;
2023/02/20 01:16:41;;;;;;;18.30;12.82;;;6.50;1.00;;;;;;6275569;22;20235;-86
2023/02/20 01:19:43;;;;;;;22.70;12.70;;;6.60;1.00;;;;;;6249765;22;20508;-86
2023/02/20 01:22:46;;;;;;;19.70;11.85;;;6.60;1.00;;;;;;6273637;22;20136;-86
2023/02/20 01:28:35;;;;;;;;;;;;;;;;;;;;;
2023/02/20 01:34:24;;;;;;;24.13;13.07;;;6.60;1.00;;;;;;6263197;22;20192;-86
2023/02/20 01:37:24;;;;;;;27.45;11.60;;;6.60;1.00;;;;;;6273027;22;20190;-86
2023/02/20 01:40:29;;;;;;;20.60;13.23;;;6.70;1.00;;;;;;6274179;22;20680;-87
2023/02/20 01:43:20;;;;;;;19.90;12.48;;;6.70;1.00;;;;;;6275030;22;20247;-86
2023/02/20 01:46:08;;;;;;;19.40;12.57;;;6.70;1.00;;;;;;6274591;22;20176;-87
2023/02/20 01:48:46;;;;;;;25.05;12.68;;;6.70;1.00;;;;;;6271757;22;20164;-87
2023/02/20 01:51:22;;;;;;;27.80;12.60;;;6.80;1.00;;;;;;6274971;22;20615;-86
2023/02/20 01:54:28;;;;;;;22.45;11.90;;;6.80;1.00;;;;;;6274509;22;20255;-86
2023/02/20 01:57:06;;;;;;;19.63;12.07;;;6.80;1.00;;;;;;6276773;22;20182;-86
2023/02/20 01:59:57;;;;;;;31.10;12.75;;;6.80;1.00;;;;;;6276987;22;20125;-86
2023/02/20 02:02:29;;;;;;;21.27;12.70;;;6.90;1.00;;;;;;6272637;22;20225;-86
2023/02/20 02:05:21;;;;;;;27.77;12.70;;;6.90;1.00;;;;;;6273752;22;20187;-86
2023/02/20 02:08:28;;;;;;;24.83;12.45;;;6.90;1.00;;;;;;6269567;22;20152;-86
2023/02/20 02:11:27;;;;;;;21.75;13.48;;;6.90;99.90;;;;;;6276298;22;20198;-86
2023/02/20 02:17:42;;;;;;;;;;;;;;;;;;;;;
2023/02/20 02:20:56;;;;;;;26.42;11.95;;;6.80;99.90;;;;;;6274438;22;20208;-86
2023/02/20 02:24:20;;;;;;;24.90;12.13;;;6.70;99.90;;;;;;6272117;22;20179;-86
2023/02/20 02:26:54;;;;;;;20.50;11.38;;;6.70;1.00;;;;;;6261075;22;20290;-86
2023/02/20 02:30:55;;;;;;;23.02;11.43;;;6.70;1.00;;;;;;6272695;22;20163;-86
2023/02/20 02:33:52;;;;;;;23.38;10.75;;;6.70;1.00;;;;;;6263054;22;20237;-86
2023/02/20 02:39:22;;;;;;;19.35;9.80;;;6.60;1.00;;;;;;6261164;22;20545;-87
2023/02/20 02:42:35;;;;;;;21.35;10.13;;;6.60;1.00;;;;;;6273323;22;20140;-87
2023/02/20 02:45:48;;;;;;;20.60;9.10;;;6.60;1.00;;;;;;6273340;22;20141;-86
2023/02/20 02:48:46;;;;;;;22.45;9.45;;;6.60;1.00;;;;;;6273454;22;20159;-86
2023/02/20 02:51:44;;;;;;;;;;;;;;;;;;;;;
2023/02/20 02:54:28;;;;;;;16.23;8.52;;;6.60;1.00;;;;;;6273404;22;20246;-86
2023/02/20 02:57:25;;;;;;;16.58;7.60;;;6.60;1.00;;;;;;6274402;22;20141;-86
2023/02/20 03:03:01;;;;;;;12.43;6.65;;;6.60;1.00;;;;;;6262347;22;20187;-86
2023/02/20 03:06:02;;;;;;;;;;;;;;;;;;;;;
2023/02/20 03:09:16;;;;;;;10.65;7.10;;;6.60;1.00;;;;;;6274576;22;20675;-86
2023/02/20 03:15:42;;;;;;;;;;;;;;;;;;;;;
2023/02/20 03:19:06;;;;;;;14.90;8.15;;;6.60;1.00;;;;;;6240901;23;20259;-86
2023/02/20 03:21:48;;;;;;;15.52;5.95;;;6.60;1.00;;;;;;6263378;22;20153;-87
2023/02/20 03:24:41;;;;;;;;;;;;;;;;;;;;;
2023/02/20 03:27:20;;;;;;;12.25;7.43;;;6.50;1.00;;;;;;6273464;22;20219;-87
2023/02/20 03:30:08;;;;;;;10.90;6.07;;;6.50;1.00;;;;;;6272588;22;20144;-87
2023/02/20 03:44:49;;;;;;;15.43;7.18;;;6.50;1.00;;;;;;6273500;22;20184;-86
2023/02/20 03:47:22;;;;;;;10.20;4.95;;;6.50;1.00;;;;;;6269556;22;20156;-86
2023/02/20 03:50:07;;;;;;;;;;;;;;;;;;;;;
2023/02/20 03:52:51;;;;;;;;;;;;;;;;;;;;;
2023/02/20 03:55:39;;;;;;;10.70;5.00;;;6.40;1.00;;;;;;6274582;22;20513;-86
2023/02/20 03:58:28;;;;;;;;;;;;;;;;;;;;;
2023/02/20 04:01:38;;;;;;;;;;;;;;;;;;;;;
2023/02/20 04:04:45;;;;;;;;;;;;;;;;;;;;;
2023/02/20 04:07:21;;;;;;;14.18;5.10;;;6.40;1.00;;;;;;6273016;22;20230;-86
2023/02/20 04:10:12;;;;;;;12.25;5.60;;;6.40;1.00;;;;;;6247286;22;20587;-86
2023/02/20 04:13:08;;;;;;;;;;;;;;;;;;;;;
2023/02/20 04:15:57;;;;;;;6.18;5.18;;;6.40;1.00;;;;;;6273699;22;20216;-87
2023/02/20 04:18:42;;;;;;;11.05;5.18;;;6.40;1.00;;;;;;6271436;22;20226;-86
2023/02/20 04:24:55;;;;;;;;;;;;;;;;;;;;;
2023/02/20 04:28:04;;;;;;;10.13;4.63;;;6.40;1.00;;;;;;6274123;22;20211;-86
2023/02/20 04:30:38;;;;;;;8.48;4.45;;;6.40;1.00;;;;;;6292152;22;20156;-87
2023/02/20 04:33:23;;;;;;;8.25;4.03;;;6.40;1.00;;;;;;6290931;22;20714;-86
2023/02/20 04:36:01;;;;;;;7.28;4.53;;;6.40;1.00;;;;;;6272796;22;20588;-87
2023/02/20 04:38:46;;;;;;;9.43;4.45;;;6.40;1.00;;;;;;6271334;22;20174;-87
2023/02/20 04:44:30;;;;;;;11.50;4.35;;;6.40;1.00;;;;;;6251668;22;20230;-86
2023/02/20 04:47:26;;;;;;;6.95;4.28;;;6.40;1.00;;;;;;6271417;22;20209;-87
2023/02/20 04:50:07;;;;;;;;;;;;;;;;;;;;;
2023/02/20 04:52:56;;;;;;;5.07;3.90;;;6.40;1.00;;;;;;6272596;22;20251;-86
2023/02/20 04:55:45;;;;;;;9.30;4.88;;;6.40;1.00;;;;;;6271457;22;20535;-86
2023/02/20 04:58:14;;;;;;;10.98;5.30;;;6.40;1.00;;;;;;6274245;22;20129;-87
2023/02/20 05:01:21;;;;;;;;;;;;;;;;;;;;;
2023/02/20 05:04:12;;;;;;;13.02;5.68;;;6.40;1.00;;;;;;6273027;22;20246;-87
2023/02/20 05:07:01;;;;;;;10.43;5.70;;;6.40;1.00;;;;;;6273302;22;20129;-86
2023/02/20 05:09:42;;;;;;;;;;;;;;;;;;;;;
2023/02/20 05:12:21;;;;;;;10.90;5.03;;;6.40;1.00;;;;;;6272631;22;20251;-87
2023/02/20 05:18:20;;;;;;;9.82;4.95;;;6.30;1.00;;;;;;6261857;22;20164;-86
2023/02/20 05:24:33;;;;;;;12.18;5.25;;;6.30;1.00;;;;;;6272312;22;20286;-87
2023/02/20 05:30:05;;;;;;;10.20;6.68;;;6.30;1.00;;;;;;6240472;22;20163;-86
2023/02/20 05:32:49;;;;;;;;;;;;;;;;;;;;;
2023/02/20 05:38:52;;;;;;;14.98;6.07;;;6.30;1.00;;;;;;6262938;22;20221;-86
2023/02/20 05:41:14;;;;;;;13.15;6.22;;;6.30;1.00;;;;;;6270498;22;20152;-86
2023/02/20 05:43:47;;;;;;;14.80;6.85;;;6.30;1.00;;;;;;6275282;22;20180;-86
2023/02/20 05:46:26;;;;;;;12.75;6.30;;;6.30;1.00;;;;;;6276129;22;20178;-86
2023/02/20 05:49:24;;;;;;;;;;;;;;;;;;;;;
2023/02/20 05:54:55;;;;;;;;;;;;;;;;;;;;;
2023/02/20 05:57:40;;;;;;;16.55;7.70;;;6.30;1.00;;;;;;6275114;22;20259;-87
2023/02/20 06:00:14;;;;;;;19.45;7.80;;;6.30;1.00;;;;;;6275431;22;20132;-86
2023/02/20 06:02:58;;;;;;;14.82;7.85;;;6.30;1.00;;;;;;6275139;22;20136;-86
2023/02/20 06:05:42;;;;;;;;;;;;;;;;;;;;;
2023/02/20 06:09:06;;;;;;;;;;;;;;;;;;;;;
2023/02/20 06:11:31;;;;;;;;;;;;;;;;;;;;;
2023/02/20 06:17:36;;;;;;;;;;;;;;;;;;;;;
2023/02/20 06:20:05;;;;;;;27.00;8.98;;;6.50;1.00;;;;;;6275219;22;20251;-86
2023/02/20 06:22:50;;;;;;;13.20;8.80;;;6.50;1.00;;;;;;6275818;22;20154;-86
2023/02/20 06:25:39;;;;;;;15.18;8.10;;;6.50;1.00;;;;;;6273794;22;20145;-87
2023/02/20 06:28:07;;;;;;;16.83;9.52;;;6.50;1.00;;;;;;6275885;22;20160;-86
2023/02/20 06:31:40;;;;;;;14.45;8.23;;;6.50;1.00;;;;;;6272674;22;20635;-86
2023/02/20 06:37:40;;;;;;;19.13;10.65;;;6.50;1.00;;;;;;6280417;22;20166;-87
2023/02/20 06:40:47;;;;;;;;;;;;;;;;;;;;;
2023/02/20 06:43:27;;;;;;;19.38;11.52;;;6.50;1.00;;;;;;6275019;22;20255;-87
2023/02/20 06:46:02;;;;;;;14.55;11.05;;;6.50;1.00;;;;;;6273391;22;20156;-86
2023/02/20 06:48:59;;;;;;;;;;;;;;;;;;;;;
2023/02/20 06:51:43;;;;;;;15.50;11.10;;;6.50;1.00;;;;;;6274624;22;20275;-86
2023/02/20 06:54:20;;;;;;;22.50;11.77;;;6.50;1.00;;;;;;6273682;22;20179;-86
2023/02/20 06:56:55;;;;;;;16.45;12.00;;;6.60;1.00;;;;;;6273066;22;20194;-87
2023/02/20 06:59:41;;;;;;;22.70;12.25;;;6.60;1.00;;;;;;6275993;22;20144;-85
2023/02/20 07:02:28;;;;;;;24.17;12.15;;;6.60;1.00;;;;;;6281308;22;20488;-85
2023/02/20 07:05:05;;;;;;;18.67;11.70;;;6.70;1.00;;;;;;6283149;22;20139;-87
2023/02/20 07:07:44;;;;;;;18.08;12.85;;;6.80;99.90;;;;;;6283747;22;20136;-86
2023/02/20 07:10:25;;;;;;;18.73;12.38;;;6.80;99.90;;;;;;6283476;22;20489;-85
2023/02/20 07:13:02;;;;;;;18.98;11.77;;;6.90;99.90;;;;;;6282684;22;20195;-85
2023/02/20 07:18:26;;;;;;;;;;;;;;;;;;;;;
2023/02/20 07:20:57;;;;;;;17.35;12.43;;;7.00;99.90;;;;;;6282816;22;20162;-85
2023/02/20 07:23:32;;;;;;;18.80;12.68;;;7.00;99.90;;;;;;6282567;22;20174;-85
2023/02/20 07:26:37;;;;;;;24.10;13.43;;;7.00;99.90;;;;;;6281866;22;20221;-86
2023/02/20 07:29:13;;;;;;;15.85;11.88;;;7.10;99.90;;;;;;6280749;22;20540;-85
2023/02/20 07:31:54;;;;;;;18.35;11.90;;;7.10;99.90;;;;;;6281773;22;20168;-85
2023/02/20 07:34:53;;;;;;;20.10;11.75;;;7.10;99.90;;;;;;6277928;22;20624;-86
2023/02/20 07:40:18;;;;;;;15.40;11.45;;;7.10;99.90;;;;;;6265931;22;20153;-86
2023/02/20 07:42:56;;;;;;;20.10;12.75;;;7.10;99.90;;;;;;6275847;22;20142;-85
2023/02/20 07:45:22;;;;;;;24.27;15.25;;;7.10;99.90;;;;;;6278929;22;20160;-86
2023/02/20 07:47:50;;;;;;;18.55;12.90;;;7.10;77.60;;;;;;6280957;22;20231;-85
2023/02/20 07:50:27;;;;;;;24.35;13.35;;;7.10;93.90;;;;;;6280117;22;20585;-86
2023/02/20 07:52:58;;;;;;;24.05;13.38;;;7.10;56.40;;;;;;6280721;22;20192;-86
2023/02/20 07:55:23;;;;;;;20.00;12.23;;;7.10;47.80;;;;;;6278626;22;20219;-86
2023/02/20 07:57:56;;;;;;;15.80;12.80;;;7.20;64.80;;;;;;6275853;22;20232;-87
2023/02/20 08:00:31;;;;;;;19.98;13.23;;;7.20;23.60;;;;;;6271544;22;20149;-86
2023/02/20 08:02:58;;;;;;;23.90;14.85;;;7.20;1.00;;;;;;6275255;22;20194;-86
2023/02/20 08:05:26;;;;;;;22.70;12.57;;;7.20;1.00;;;;;;6276760;22;20184;-86
2023/02/20 08:07:55;;;;;;;21.58;13.60;;;7.20;1.00;;;;;;6276052;22;20247;-86
2023/02/20 08:10:31;;;;;;;19.42;13.30;;;7.30;1.00;;;;;;6294143;22;20177;-87
2023/02/20 08:12:58;;;;;;;22.27;12.77;;;7.30;1.00;;;;;;6293717;22;20188;-86
2023/02/20 08:15:26;;;;;;;22.45;13.73;;;7.40;1.00;;;;;;6277183;22;20229;-86
2023/02/20 08:17:57;;;;;;;16.73;11.85;;;7.40;1.00;;;;;;6273317;22;20226;-87
2023/02/20 08:20:56;;;;;;;;;;;;;;;;;;;;;
2023/02/20 08:23:25;;;;;;;22.73;11.90;;;7.40;1.00;;;;;;6274654;22;20872;-87
2023/02/20 08:25:51;;;;;;;23.08;12.70;;;7.50;1.00;;;;;;6273890;22;20152;-87
2023/02/20 08:28:30;;;;;;;;;;;;;;;;;;;;;
2023/02/20 08:30:56;;;;;;;14.83;10.90;;;7.80;99.90;;;;;;6273102;22;20218;-86
2023/02/20 08:33:21;;;;;;;21.47;12.83;;;7.90;1.00;;;;;;6270286;22;20446;-87
2023/02/20 08:36:00;;;;;;;18.33;12.10;;;8.00;1.00;;;;;;6272165;22;20394;-89
2023/02/20 08:38:37;;;;;;;27.25;11.88;;;8.10;99.90;;;;;;6272147;22;20148;-87
2023/02/20 08:41:11;;;;;;;19.70;11.25;;;8.20;6.10;;;;;;6271679;22;20178;-87
2023/02/20 08:43:51;;;;;;;21.90;11.60;;;8.20;99.90;;;;;;6274060;22;20520;-86
2023/02/20 08:46:20;;;;;;;21.48;12.23;;;8.30;99.90;;;;;;6275245;22;20374;-86
2023/02/20 08:48:45;;;;;;;19.92;12.82;;;8.40;1.00;;;;;;6273138;22;20175;-88
2023/02/20 08:51:11;;;;;;;13.40;11.40;;;8.50;1.00;;;;;;6275151;22;20797;-84
2023/02/20 08:54:20;;;;;;;24.23;11.67;;;8.40;99.90;;;;;;6278622;22;20519;-86
2023/02/20 08:57:06;;;;;;;18.53;12.50;;;8.40;99.90;;;;;;6276799;22;20406;-87
2023/02/20 09:00:22;;;;;;;;;;;;;;;;;;;;;
2023/02/20 09:23:29;;;;;;;;;;;;;;;;;;;;;
2023/02/20 09:26:32;;;;;;;13.93;10.37;;;9.50;1.00;;;;;;6251096;23;20384;-85
2023/02/20 09:29:06;;;;;;;15.80;10.00;;;9.50;99.90;;;;;;6219235;23;20408;-85
2023/02/20 09:32:30;;;;;;;16.57;10.97;;;9.40;1.00;;;;;;6254416;23;20472;-86
2023/02/20 09:38:54;;;;;;;16.60;11.60;;;9.30;99.90;;;;;;6232197;23;20398;-86
2023/02/20 09:41:54;;;;;;;16.87;11.03;;;9.30;1.00;;;;;;6237645;22;20437;-85
2023/02/20 09:52:02;;;;;;;18.87;10.60;;;9.30;1.00;;;;;;6253641;22;20483;-85
2023/02/20 09:55:47;;;;;;;16.70;11.90;;;9.40;1.00;;;;;;6235314;23;20407;-86
2023/02/20 09:58:45;;;;;;;66.27;34.60;;;9.50;99.90;;;;;;6215858;23;20385;-86
2023/02/20 10:01:40;;;;;;;24.20;13.60;;;9.50;99.90;;;;;;6205058;22;20722;-87
2023/02/20 10:04:17;;;;;;;20.87;11.87;;;9.60;99.90;;;;;;6247589;23;20911;-87
2023/02/20 10:13:28;;;;;;;21.37;11.10;;;9.60;99.90;;;;;;6246818;23;20428;-86
2023/02/20 10:17:01;;;;;;;;;;;;;;;;;;;;;
2023/02/20 10:19:45;;;;;;;16.60;11.63;;;9.70;99.90;;;;;;6244352;23;20486;-86
2023/02/20 11:04:14;;;;;;;16.37;11.40;;;9.80;89.60;;;;;;6264171;22;20416;-86
2023/02/20 11:06:48;;;;;;;17.40;10.53;;;9.80;56.10;;;;;;6278652;22;20379;-86
2023/02/20 11:09:16;;;;;;;17.80;12.00;;;9.80;99.90;;;;;;6282205;22;20355;-87
2023/02/20 11:11:46;;;;;;;15.30;10.47;;;9.80;99.90;;;;;;6279848;22;20419;-86
2023/02/20 11:14:46;;;;;;;;;;;;;;;;;;;;;
2023/02/20 11:17:27;;;;;;;17.23;11.43;;;9.90;99.90;;;;;;6276069;22;20457;-86
2023/02/20 11:20:15;;;;;;;17.70;10.97;;;9.90;76.90;;;;;;6275010;22;20722;-86
2023/02/20 11:22:48;;;;;;;16.13;11.93;;;9.90;1.00;;;;;;6274468;22;20470;-86
2023/02/20 11:28:42;;;;;;;16.10;10.80;;;10.00;1.00;;;;;;6266710;22;20389;-86
2023/02/20 11:31:41;;;;;;;18.20;12.20;;;10.10;1.00;;;;;;6276188;22;20386;-87
2023/02/20 11:35:32;;;;;;;;;;;;;;;;;;;;;
2023/02/20 11:38:32;;;;;;;19.47;12.53;;;10.00;1.00;;;;;;6269401;22;20410;-86
2023/02/20 11:41:34;;;;;;;;;;;;;;;;;;;;;
2023/02/20 11:44:39;;;;;;;26.50;14.03;;;9.90;1.00;;;;;;6278200;22;20481;-86
2023/02/20 11:47:54;;;;;;;15.80;12.17;;;9.80;18.20;;;;;;6278635;22;20403;-87
2023/02/20 11:57:34;;;;;;;;;;;;;;;;;;;;;
2023/02/20 12:00:30;;;;;;;15.47;11.40;;;10.30;1.00;;;;;;6284953;22;20384;-86
2023/02/20 12:03:33;;;;;;;18.73;12.03;;;10.40;1.00;;;;;;6271579;22;20809;-86
2023/02/20 12:07:26;;;;;;;;;;;;;;;;;;;;;
2023/02/20 12:17:21;;;;;;;15.60;10.33;;;10.40;1.00;;;;;;6226078;22;20414;-87
2023/02/20 12:20:25;;;;;;;18.93;11.10;;;10.30;1.00;;;;;;6274252;22;20375;-87
2023/02/20 12:23:09;;;;;;;15.80;11.23;;;10.20;1.00;;;;;;6264808;22;20402;-86
2023/02/20 12:26:07;;;;;;;16.13;10.67;;;10.10;48.20;;;;;;6286520;22;20841;-86
2023/02/20 12:28:57;;;;;;;17.87;11.00;;;10.10;99.90;;;;;;6281836;22;20432;-87
2023/02/20 12:31:54;;;;;;;;;;;;;;;;;;;;;
2023/02/20 12:38:07;;;;;;;15.47;10.37;;;10.00;99.90;;;;;;6226135;23;20471;-86
2023/02/20 12:41:15;;;;;;;24.80;13.20;;;9.90;99.90;;;;;;6194758;23;20389;-84
2023/02/20 12:44:03;;;;;;;19.20;12.93;;;9.90;1.00;;;;;;6272288;22;20491;-85
2023/02/20 12:47:50;;;;;;;;;;;;;;;;;;;;;
2023/02/20 12:50:45;;;;;;;;;;;;;;;;;;;;;
2023/02/20 12:53:26;;;;;;;21.57;13.57;;;10.00;1.00;;;;;;6284255;22;20458;-85
2023/02/20 12:55:55;;;;;;;20.00;12.67;;;10.00;1.00;;;;;;6282853;22;20421;-85
2023/02/20 12:58:48;;;;;;;18.07;12.57;;;9.90;1.00;;;;;;6282494;22;20403;-85
2023/02/20 13:02:34;;;;;;;20.07;12.47;;;9.90;99.90;;;;;;6278986;22;20453;-86
2023/02/20 13:08:42;;;;;;;25.60;14.17;;;9.80;1.00;;;;;;6249109;23;20384;-85
2023/02/20 13:12:00;;;;;;;;;;;;;;;;;;;;;
2023/02/20 13:21:07;;;;;;;24.23;15.60;;;9.80;1.00;;;;;;6264694;22;20383;-86
2023/02/20 13:23:51;;;;;;;24.33;15.57;;;9.90;99.90;;;;;;6277715;22;20399;-86
2023/02/20 13:26:54;;;;;;;;;;;;;;;;;;;;;
2023/02/20 13:36:47;;;;;;;21.20;13.27;;;9.90;99.90;;;;;;6233843;22;20383;-86
2023/02/20 13:39:33;;;;;;;21.57;13.30;;;9.90;1.00;;;;;;6276215;22;20374;-86
2023/02/20 13:42:09;;;;;;;21.00;12.93;;;9.90;1.00;;;;;;6274285;22;20730;-87
2023/02/20 13:44:50;;;;;;;21.83;13.30;;;9.90;99.90;;;;;;6275315;22;20398;-86
2023/02/20 13:47:22;;;;;;;21.87;14.30;;;9.90;90.80;;;;;;6274190;22;20394;-87
2023/02/20 13:50:20;;;;;;;22.87;12.60;;;9.90;99.90;;;;;;6273581;22;20387;-87
2023/02/20 13:52:56;;;;;;;22.63;13.10;;;10.00;99.90;;;;;;6271036;22;20910;-86
2023/02/20 13:56:02;;;;;;;17.73;11.70;;;10.10;1.00;;;;;;6274719;22;20347;-87
2023/02/20 13:58:58;;;;;;;;;;;;;;;;;;;;;
2023/02/20 14:04:34;;;;;;;;;;;;;;;;;;;;;
2023/02/20 14:08:07;;;;;;;;;;;;;;;;;;;;;
2023/02/20 14:11:21;;;;;;;21.67;14.00;;;10.40;1.00;;;;;;6272597;22;20470;-87
2023/02/20 14:17:39;;;;;;;;;;;;;;;;;;;;;
2023/02/20 14:21:00;;;;;;;19.87;11.97;;;10.30;1.00;;;;;;6264426;22;20470;-86
2023/02/20 14:23:48;;;;;;;17.80;12.43;;;10.30;1.00;;;;;;6279339;22;20395;-86
2023/02/20 14:30:15;;;;;;;19.20;11.37;;;10.40;1.00;;;;;;6279698;22;20381;-86
2023/02/20 14:33:57;;;;;;;16.47;11.90;;;10.40;99.90;;;;;;6275904;22;20426;-86
2023/02/20 14:37:11;;;;;;;;;;;;;;;;;;;;;
2023/02/20 14:40:02;;;;;;;25.50;12.13;;;10.40;99.90;;;;;;6276107;22;20454;-87
2023/02/20 14:48:11;;;;;;;18.87;10.60;;;10.40;99.90;;;;;;6247950;22;20458;-87
2023/02/20 14:54:28;;;;;;;14.93;9.70;;;10.50;99.90;;;;;;6194557;22;20462;-85
2023/02/20 14:57:04;;;;;;;15.03;10.03;;;10.40;99.90;;;;;;6247154;23;20907;-88
2023/02/20 14:59:35;;;;;;;16.30;10.93;;;10.40;99.90;;;;;;6248709;23;20383;-86
2023/02/20 15:03:05;;;;;;;16.97;10.20;;;10.30;99.90;;;;;;6250186;23;20844;-86
2023/02/20 15:05:56;;;;;;;16.80;10.90;;;10.20;99.90;;;;;;6217531;23;20391;-86
2023/02/20 15:08:30;;;;;;;15.83;10.47;;;10.20;1.00;;;;;;6216886;23;20388;-85
2023/02/20 15:11:27;;;;;;;11.10;9.53;;;10.10;1.00;;;;;;6220002;23;20380;-85
2023/02/20 15:13:59;;;;;;;13.80;9.90;;;10.10;1.00;;;;;;6217916;23;20430;-85
2023/02/20 15:17:19;;;;;;;;;;;;;;;;;;;;;
2023/02/20 15:19:46;;;;;;;17.33;11.33;;;10.00;99.90;;;;;;6222486;23;20384;-85
2023/02/20 15:22:47;;;;;;;14.00;10.40;;;10.00;99.90;;;;;;6229289;23;20724;-85
2023/02/20 15:25:27;;;;;;;17.70;10.30;;;10.00;1.00;;;;;;6145259;23;20426;-85
2023/02/20 15:28:31;;;;;;;16.43;10.20;;;10.00;1.00;;;;;;6233020;23;20388;-86
2023/02/20 15:31:43;;;;;;;16.40;10.70;;;9.90;1.00;;;;;;6218306;23;20376;-85
2023/02/20 15:39:47;;;;;;;18.80;12.03;;;9.90;99.90;;;;;;6249414;22;20765;-85
2023/02/20 15:42:25;;;;;;;17.00;13.27;;;9.90;99.90;;;;;;6250032;23;20380;-86
2023/02/20 15:44:53;;;;;;;17.70;11.80;;;9.80;99.90;;;;;;6251330;23;20399;-85
2023/02/20 15:47:19;;;;;;;20.40;12.57;;;9.80;1.00;;;;;;6248706;23;20376;-86
2023/02/20 15:50:02;;;;;;;20.00;12.50;;;9.80;1.00;;;;;;6248872;23;20380;-85
2023/02/20 15:52:29;;;;;;;18.20;11.03;;;9.70;99.90;;;;;;6254353;23;20162;-86
2023/02/20 15:54:55;;;;;;;20.50;10.63;;;9.80;99.90;;;;;;6253865;23;20384;-85
2023/02/20 15:57:21;;;;;;;17.17;11.13;;;9.80;99.90;;;;;;6253526;23;20383;-85
2023/02/20 15:59:49;;;;;;;13.27;9.80;;;9.80;99.90;;;;;;6248154;23;20469;-85
2023/02/20 16:02:20;;;;;;;15.03;10.60;;;9.80;1.00;;;;;;6246890;23;21018;-86
2023/02/20 16:04:56;;;;;;;19.23;13.20;;;9.70;1.00;;;;;;6247062;23;20462;-85
2023/02/20 16:07:32;;;;;;;13.93;11.17;;;9.70;1.00;;;;;;6247859;23;20417;-85
2023/02/20 16:10:00;;;;;;;15.77;11.57;;;9.70;1.00;;;;;;6246219;23;20408;-86
2023/02/20 16:12:32;;;;;;;15.80;12.30;;;9.70;1.00;;;;;;6248054;23;20408;-85
2023/02/20 16:15:01;;;;;;;16.13;10.80;;;9.70;1.00;;;;;;6245797;23;20396;-86
2023/02/20 16:17:33;;;;;;;16.80;11.37;;;9.70;99.90;;;;;;6245506;23;20383;-86
2023/02/20 16:20:09;;;;;;;;;;;;;;;;;;;;;
2023/02/20 16:22:43;;;;;;;19.13;11.60;;;9.60;99.90;;;;;;6248451;23;20483;-85
2023/02/20 16:25:30;;;;;;;16.70;11.17;;;9.60;99.90;;;;;;6249441;23;20387;-85
2023/02/20 16:28:01;;;;;;;20.10;12.90;;;9.60;1.00;;;;;;6249750;23;20451;-85
2023/02/20 16:30:37;;;;;;;15.57;10.40;;;9.60;1.00;;;;;;6252365;23;20423;-86
2023/02/20 16:33:18;;;;;;;25.40;11.20;;;9.50;1.00;;;;;;6250624;23;20431;-86
2023/02/20 16:35:47;;;;;;;14.13;10.43;;;9.50;1.00;;;;;;6252015;23;20426;-86
2023/02/20 16:38:16;;;;;;;16.70;10.00;;;9.50;1.00;;;;;;6249399;23;20753;-86
2023/02/20 16:40:42;;;;;;;21.03;12.97;;;9.50;1.00;;;;;;6252701;23;20922;-87
2023/02/20 16:43:11;;;;;;;21.30;11.93;;;9.50;1.00;;;;;;6248653;23;20408;-85
2023/02/20 16:45:37;;;;;;;17.90;11.00;;;9.50;1.00;;;;;;6248832;23;20161;-84
2023/02/20 16:48:05;;;;;;;17.90;12.30;;;9.60;1.00;;;;;;6251501;23;20407;-85
2023/02/20 16:50:33;;;;;;;22.37;13.33;;;9.60;1.00;;;;;;6248942;23;20395;-86
2023/02/20 16:53:05;;;;;;;20.43;10.60;;;9.50;1.00;;;;;;6247303;23;20438;-86
2023/02/20 16:55:35;;;;;;;22.20;14.43;;;9.50;74.00;;;;;;6247824;23;20387;-85
2023/02/20 16:58:11;;;;;;;23.40;13.67;;;9.50;99.90;;;;;;6246587;23;20380;-86
2023/02/20 17:00:44;;;;;;;17.87;11.43;;;9.50;99.90;;;;;;6245009;23;20483;-86
2023/02/20 17:03:10;;;;;;;23.27;13.18;;;9.50;99.90;;;;;;6247575;23;20457;-85
2023/02/20 17:05:43;;;;;;;14.23;10.87;;;9.50;99.90;;;;;;6249859;23;20156;-85
2023/02/20 17:08:14;;;;;;;17.00;11.30;;;9.40;99.90;;;;;;6248252;23;20711;-85
2023/02/20 17:10:55;;;;;;;;;;;;;;;;;;;;;
2023/02/20 17:13:25;;;;;;;16.83;11.07;;;9.40;99.90;;;;;;6245759;23;20503;-85
2023/02/20 17:15:53;;;;;;;13.97;10.40;;;9.40;1.00;;;;;;6246833;23;20368;-85
2023/02/20 17:18:19;;;;;;;18.10;10.13;;;9.40;1.00;;;;;;6244193;23;20430;-85
2023/02/20 17:20:55;;;;;;;;;;;;;;;;;;;;;
2023/02/20 17:23:21;;;;;;;12.53;9.30;;;9.40;1.00;;;;;;6246701;23;20255;-85
2023/02/20 17:25:46;;;;;;;18.80;11.20;;;9.40;1.00;;;;;;6245705;23;20398;-85
2023/02/20 17:28:21;;;;;;;11.73;8.90;;;9.40;1.00;;;;;;6250121;23;20165;-86
2023/02/20 17:30:53;;;;;;;17.03;10.87;;;9.50;1.00;;;;;;6245852;23;20354;-86
2023/02/20 17:33:25;;;;;;;15.83;9.97;;;9.40;1.00;;;;;;6249662;23;20910;-86
2023/02/20 17:36:02;;;;;;;22.87;10.73;;;9.40;1.00;;;;;;6251863;23;20788;-84
2023/02/20 17:38:32;;;;;;;15.43;10.63;;;9.40;1.00;;;;;;6247815;23;20753;-86
2023/02/20 17:41:44;;;;;;;18.43;9.93;;;9.40;1.00;;;;;;6246489;23;20382;-87
2023/02/20 17:44:13;;;;;;;22.77;13.90;;;9.40;1.00;;;;;;6245150;23;20434;-87
2023/02/20 17:46:42;;;;;;;15.10;11.20;;;9.40;1.00;;;;;;6244106;23;20879;-87
2023/02/20 17:49:15;;;;;;;19.83;12.17;;;9.40;1.00;;;;;;6244356;23;20444;-87
2023/02/20 17:51:41;;;;;;;14.80;10.33;;;9.40;1.00;;;;;;6244081;23;20446;-86
2023/02/20 17:54:15;;;;;;;17.80;10.60;;;9.40;1.00;;;;;;6244373;23;20403;-86
2023/02/20 17:57:14;;;;;;;;;;;;;;;;;;;;;
2023/02/20 17:59:54;;;;;;;;;;;;;;;;;;;;;
2023/02/20 18:02:20;;;;;;;24.40;13.30;;;9.40;1.00;;;;;;6244584;23;20212;-88
2023/02/20 18:04:48;;;;;;;21.80;13.50;;;9.30;1.00;;;;;;6244284;23;20439;-87
2023/02/20 18:07:16;;;;;;;23.43;13.53;;;9.30;1.00;;;;;;6245570;23;20597;-89
2023/02/20 18:10:04;;;;;;;18.20;12.37;;;9.30;1.00;;;;;;6246112;23;20415;-86
2023/02/20 18:12:35;;;;;;;18.83;11.67;;;9.30;1.00;;;;;;6243182;23;20496;-87
2023/02/20 18:15:03;;;;;;;18.60;11.40;;;9.30;1.00;;;;;;6244118;23;20522;-86
2023/02/20 18:20:29;;;;;;;21.33;11.30;;;9.30;1.00;;;;;;6253714;23;20355;-87
2023/02/20 18:27:11;;;;;;;;;;;;;;;;;;;;;
2023/02/20 18:34:00;;;;;;;;;;;;;;;;;;;;;
2023/02/20 18:36:55;;;;;;;14.15;11.05;;;9.30;9.40;;;;;;6081860;23;20243;-87
2023/02/20 19:01:18;;;;;;;19.23;12.48;;;9.30;93.70;;;;;;6279868;22;20414;-87
2023/02/20 19:04:04;;;;;;;17.20;12.13;;;9.30;99.90;;;;;;6277654;22;20168;-87
2023/02/20 19:29:12;;;;;;;17.43;13.47;;;9.20;99.90;;;;;;6230557;22;20477;-86
2023/02/20 19:31:41;;;;;;;23.37;14.97;;;9.20;99.90;;;;;;6256221;23;20382;-86
2023/02/20 19:49:47;;;;;;;22.40;15.40;;;9.20;99.90;;;;;;6190698;22;20173;-87
2023/02/20 19:52:18;;;;;;;26.50;16.37;;;9.20;99.90;;;;;;6221234;23;20516;-86
2023/02/20 19:54:45;;;;;;;27.50;15.73;;;9.20;99.90;;;;;;6249411;23;20384;-86
2023/02/20 19:57:18;;;;;;;23.93;16.83;;;9.20;99.90;;;;;;6277184;22;20508;-86
2023/02/20 20:18:37;;;;;;;;;;;;;;;;;;;;;
2023/02/20 20:25:18;;;;;;;19.67;13.47;;;9.10;99.90;;;;;;6162483;23;20394;-86
2023/02/20 20:28:36;;;;;;;;;;;;;;;;;;;;;
2023/02/20 20:31:05;;;;;;;27.30;16.27;;;9.10;99.90;;;;;;6251013;23;20955;-87
2023/02/20 20:33:42;;;;;;;23.83;14.43;;;9.10;99.90;;;;;;6252163;22;20423;-86
2023/02/20 20:36:14;;;;;;;29.40;14.67;;;9.10;99.90;;;;;;6268382;22;20391;-86
2023/02/20 20:39:16;;;;;;;;;;;;;;;;;;;;;
2023/02/20 20:41:45;;;;;;;24.20;16.20;;;9.10;99.90;;;;;;6284266;22;20410;-86
2023/02/20 20:44:25;;;;;;;;;;;;;;;;;;;;;
2023/02/20 20:47:11;;;;;;;21.13;15.17;;;9.10;99.90;;;;;;6284364;22;20164;-86
2023/02/20 20:50:19;;;;;;;23.20;15.60;;;9.10;99.90;;;;;;6284467;22;20391;-88
